首页
METAR-TAF:

METAR-TAF

机场 :

Grant County International Airport

摩西湖, 华盛顿, 美国

纬度: 47-11-35N, 经度: 119-18-48W, 海拔: 361米

当前天气观测

该预报发布于21分钟前的15:59 UTC
风速4节,风向东转东南
温度 1°C
湿度 93%
气压 1014 hPa
能見度: 0.2公里

METAR: KMWH 121559Z 12004KT 1/8SM FG VV001 01/00 A2995 RMK AO2 I1001 T00110000 RVRNO

时间: 08:20 (16:20 UTC)

预报

该预报发布于17分钟前的16:03 UTC
预报有效从12日的 16点(UTC)到 13日的 12点(UTC)
风速8节,风向
能見度: 0.8公里
阴天层高于100英尺
短暂存在
从 12日的 16点(UTC)到 12日的 18点(UTC)
能見度: 0.4公里
层高于100英尺
从 12日的 1800点(UTC)
风速10节,风向
能見度: 10公里
阴天层高于800英尺
从 12日的 2200点(UTC)
风速10节,风向南转西南
能見度: 10公里
散云层高于700英尺
阴天层高于1500英尺
小雨
从 13日的 0300点(UTC)
风速8节,风向西南
能見度: 6.4公里
阴天层高于500英尺
轻雾

TAF: KMWH 121603Z 1216/1312 18008KT 1/2SM FG OVC001 TEMPO 1216/1218 1/4SM FG VV001 FM121800 18010KT P6SM OVC008 FM122200 20010KT P6SM -RA SCT007 OVC015 FM130300 22008KT 4SM BR OVC005

超过4000个机场的气象观测和天气预报(METAR&TAF报告)。

可查询的气象台以黄色和红色小点在地图上表示。

将鼠标移到小点上方,可查看气象台名称。

然后点击查看天气观测和预报。

如需切换地图:点击带黑十字的绿色按钮放大地图;点击带横线的绿色按钮缩小地图;或者点击绿色箭头查看邻近地区的地图。


METAR-TAF: